Fall River Mills, CA (96028)

1:48 PM PDT on July 06, 2015 (GMT -0700)
Glenburn | | Change Station
CLOSE
Current Station
Personal Weather Station
Location: Fall River Mills, CA
Elevation: 3347 ft
Nearby Weather Stations

Elev 3347 ft 41.08 °N, 121.54 °W | Updated 16 seconds ago

Clear
Clear
99.3 °F
Feels Like 96 °F
N
4.6
Wind Variable Wind from West
Gusts 4.6 mph

Today
High -- | Low -- °F
--% Chance of Precip.
Yesterday
High -- | Low -- °F
Precip. -- in
5:40 AM 8:41 PM
Waning Gibbous, 72% visible
Pressure 30.05 in
Visibility 10.0 miles
Clouds Clear
Heat Index 96 °F
Dew Point 48 °F
Humidity 18%
Rainfall 0.00 in
Snow Depth Not available.
UV 12 out of 12
Pollen 4.90 out of 12
Air Quality Not available.
Flu Activity Not available.
METAR KMHS 061956Z AUTO 00000KT 10SM CLR 31/14 A3010 RMK AO2 SLP175 T03060139

More Conditions Fewer Conditions

Pressure 30.05 in
Visibility 10.0 miles
Clouds Clear
Heat Index 96 °F
Dew Point 48 °F
Humidity 18%
Rainfall 0.00 in
Snow Depth Not available.
UV 12 out of 12
Pollen 4.90 out of 12
Air Quality Not available.
Flu Activity Not available.
METAR KMHS 061956Z AUTO 00000KT 10SM CLR 31/14 A3010 RMK AO2 SLP175 T03060139

More Conditions Fewer Conditions

10-Day Weather Forecast

×

Almanac

Astronomy

Jul. 06, 2015 Rise Set
Actual Time
Civil Twilight
Nautical Twilight
Astronomical Twilight
Moon
Length of Visible Light
Length of Day
Tomorrow will be .
, % of the Moon is Illuminated

Today's Extremes

State Highs State Lows

Community

WunderPhotos

Upload Photos

1,835,638 photos uploaded!

WunderBlogs® & News

Nearby

Air Quality

  Air Quality AQ Index Pollutant
Not available.

Snow Depth

Station Depth Elevation

Earthquake Activity

City Distance Mag. Time & Date
Minimum magnitude displayed is 2.5.

Coastal Water Temperatures

Place Temperature

Stations

Nearby Weather Stations

Station Location Temp. Windchill Dew Point Humidity Wind Precip. Elev Updated Type